Delight, Arkansas
Current Conditions -  °F | °C
As of 5:56 PM on Thursday 18 Dec 2014 (Local Time) from KADF Reporting Station
Overcast Overcast  
Wind Chill:   Ceiling: 600
Heat Index:   Visibility: 9mi
Dew Point:   Wind: 3mph
Humidity: 100%   Direction: NA
Pressure: 30.2"   Gusts: NA
Location:  34.03°N, 93.5°W
Report Text: KADF 182356Z AUTO VRB03KT 9SM OVC006 07/07 A3020 RMK AO2 53006 T00660066 10066 20055 SLP242
Loading
Personal Weather Stations






























Interactive Weather Map New forecast layout! Learn more

10-Day Weather Forecast

Advertisements
Track Severe Weather on mobile